Météo des aéroports (METAR) proches de Ticheville

 

LFRG - St Gatien, France
Distance from station: N 52km
Mise à jour: 16/07/2019 06:30
clair
clair
 Wind from varies
Vent: varies 6 km/h
Température: 10°C
Point de rosée: 9°C
Humidité: 94%
Baromètre: 1020 hPa
Résumé: clair
Visibility: greater than 10 km
2019/07/16 04:30 LFRG 160430Z AUTO VRB03KT CAVOK 10/09 Q1020
LFRK - Caen/Carpiquet(A, France
Distance from station: ONO 60km
Mise à jour: 16/07/2019 06:30
clair
clair
 Wind from S
Vent: S 6 km/h
Température: 9°C
Point de rosée: 8°C
Humidité: 94%
Baromètre: 1020 hPa
Résumé: clair
Visibility: greater than 10 km
2019/07/16 04:30 LFRK 160430Z AUTO 17003KT CAVOK 09/08 Q1020
 
LFOH - Le Havre/Octevil, France
Distance from station: NNO 69km
Mise à jour: 16/07/2019 06:30
clair
clair
 Wind from ESE
Vent: ESE 9 km/h
Température: 11°C
Point de rosée: 10°C
Humidité: 94%
Baromètre: 1020 hPa
Résumé: clair
Visibility: greater than 10 km
2019/07/16 04:30 LFOH 160430Z AUTO 11005KT CAVOK 11/10 Q1020
LFOE - Evreux/Fauville, France
Distance from station: E 70km
Mise à jour: 16/07/2019 06:30
clair
clair
 Wind from NE
Vent: NE 6 km/h
Température: 11°C
Point de rosée: 9°C
Humidité: 88%
Baromètre: 1020 hPa
Résumé: clair
Visibility: greater than 10 km
2019/07/16 04:30 LFOE 160430Z AUTO 05003KT CAVOK 11/09 Q1020 NOSIG
 
LFOP - Rouen/Boos (aut), France
Distance from station: NE 83km
Mise à jour: 16/07/2019 06:30
clair
clair
 Wind from ENE
Vent: ENE 6 km/h
Température: 9°C
Point de rosée: 8°C
Humidité: 94%
Baromètre: 1020 hPa
Résumé: clair
Visibility: greater than 10 km
2019/07/16 04:30 LFOP 160430Z AUTO 07003KT CAVOK 09/08 Q1020
LFRM - Le Mans/Arnage(A, France
Distance from station: S 107km
Mise à jour: 16/07/2019 06:30
clair
clair
 Wind from NNE
Vent: NNE 6 km/h
Température: 14°C
Point de rosée: 10°C
Humidité: 77%
Baromètre: 1019 hPa
Résumé: clair
Visibility: greater than 10 km
2019/07/16 04:30 LFRM 160430Z AUTO 03003KT CAVOK 14/10 Q1019